sensor_id;sensor_type;location;lat;lon;timestamp;temperature;humidity
22813;DHT22;11573;51.334;3.244;2023-06-04T00:02:11;14.50;99.90
22813;DHT22;11573;51.334;3.244;2023-06-04T00:04:38;14.50;99.90
22813;DHT22;11573;51.334;3.244;2023-06-04T00:07:05;14.50;99.90
22813;DHT22;11573;51.334;3.244;2023-06-04T00:09:32;14.40;99.90
22813;DHT22;11573;51.334;3.244;2023-06-04T00:11:59;14.40;99.90
22813;DHT22;11573;51.334;3.244;2023-06-04T00:14:27;14.40;99.90
22813;DHT22;11573;51.334;3.244;2023-06-04T00:16:54;14.30;99.90
22813;DHT22;11573;51.334;3.244;2023-06-04T00:19:20;14.40;99.90
22813;DHT22;11573;51.334;3.244;2023-06-04T00:21:48;14.30;99.90
22813;DHT22;11573;51.334;3.244;2023-06-04T00:24:15;14.30;99.90
22813;DHT22;11573;51.334;3.244;2023-06-04T00:26:42;14.30;99.90
22813;DHT22;11573;51.334;3.244;2023-06-04T00:29:09;14.30;99.90
22813;DHT22;11573;51.334;3.244;2023-06-04T00:31:36;14.30;99.90
22813;DHT22;11573;51.334;3.244;2023-06-04T00:34:04;14.30;99.90
22813;DHT22;11573;51.334;3.244;2023-06-04T00:36:31;14.30;99.90
22813;DHT22;11573;51.334;3.244;2023-06-04T00:38:58;14.30;99.90
22813;DHT22;11573;51.334;3.244;2023-06-04T00:41:25;14.30;99.90
22813;DHT22;11573;51.334;3.244;2023-06-04T00:43:53;14.20;99.90
22813;DHT22;11573;51.334;3.244;2023-06-04T00:46:26;14.20;99.90
22813;DHT22;11573;51.334;3.244;2023-06-04T00:48:56;14.20;99.90
22813;DHT22;11573;51.334;3.244;2023-06-04T00:51:23;14.10;99.90
22813;DHT22;11573;51.334;3.244;2023-06-04T00:53:50;14.10;99.90
22813;DHT22;11573;51.334;3.244;2023-06-04T00:56:18;14.10;99.90
22813;DHT22;11573;51.334;3.244;2023-06-04T00:58:45;14.10;99.90
22813;DHT22;11573;51.334;3.244;2023-06-04T01:01:29;14.10;99.90
22813;DHT22;11573;51.334;3.244;2023-06-04T01:04:00;14.00;99.90
22813;DHT22;11573;51.334;3.244;2023-06-04T01:06:41;14.00;99.90
22813;DHT22;11573;51.334;3.244;2023-06-04T01:09:10;14.00;99.90
22813;DHT22;11573;51.334;3.244;2023-06-04T01:11:38;14.00;99.90
22813;DHT22;11573;51.334;3.244;2023-06-04T01:14:08;14.00;99.90
22813;DHT22;11573;51.334;3.244;2023-06-04T01:16:40;14.00;99.90
22813;DHT22;11573;51.334;3.244;2023-06-04T01:22:03;13.90;99.90
22813;DHT22;11573;51.334;3.244;2023-06-04T01:24:34;13.90;99.90
22813;DHT22;11573;51.334;3.244;2023-06-04T01:27:05;13.90;99.90
22813;DHT22;11573;51.334;3.244;2023-06-04T01:29:33;13.90;99.90
22813;DHT22;11573;51.334;3.244;2023-06-04T01:32:04;13.80;99.90
22813;DHT22;11573;51.334;3.244;2023-06-04T01:34:43;13.80;99.90
22813;DHT22;11573;51.334;3.244;2023-06-04T01:37:10;13.80;99.90
22813;DHT22;11573;51.334;3.244;2023-06-04T01:39:38;13.80;99.90
22813;DHT22;11573;51.334;3.244;2023-06-04T01:42:05;13.70;99.90
22813;DHT22;11573;51.334;3.244;2023-06-04T01:44:32;13.80;99.90
22813;DHT22;11573;51.334;3.244;2023-06-04T01:46:59;13.70;99.90
22813;DHT22;11573;51.334;3.244;2023-06-04T01:49:26;13.70;99.90
22813;DHT22;11573;51.334;3.244;2023-06-04T01:51:54;13.70;99.90
22813;DHT22;11573;51.334;3.244;2023-06-04T01:54:23;13.70;99.90
22813;DHT22;11573;51.334;3.244;2023-06-04T01:56:50;13.70;99.90
22813;DHT22;11573;51.334;3.244;2023-06-04T01:59:17;13.60;99.90
22813;DHT22;11573;51.334;3.244;2023-06-04T02:01:44;13.60;99.90
22813;DHT22;11573;51.334;3.244;2023-06-04T02:04:10;13.60;99.90
22813;DHT22;11573;51.334;3.244;2023-06-04T02:06:38;13.60;99.90
22813;DHT22;11573;51.334;3.244;2023-06-04T02:09:05;13.60;99.90
22813;DHT22;11573;51.334;3.244;2023-06-04T02:11:32;13.60;99.90
22813;DHT22;11573;51.334;3.244;2023-06-04T02:13:59;13.60;99.90
22813;DHT22;11573;51.334;3.244;2023-06-04T02:16:26;13.60;99.90
22813;DHT22;11573;51.334;3.244;2023-06-04T02:18:52;13.50;99.90
22813;DHT22;11573;51.334;3.244;2023-06-04T02:21:19;13.50;99.90
22813;DHT22;11573;51.334;3.244;2023-06-04T02:23:47;13.50;99.90
22813;DHT22;11573;51.334;3.244;2023-06-04T02:26:14;13.50;99.90
22813;DHT22;11573;51.334;3.244;2023-06-04T02:28:41;13.50;99.90
22813;DHT22;11573;51.334;3.244;2023-06-04T02:31:08;13.50;99.90
22813;DHT22;11573;51.334;3.244;2023-06-04T02:33:35;13.50;99.90
22813;DHT22;11573;51.334;3.244;2023-06-04T02:36:02;13.40;99.90
22813;DHT22;11573;51.334;3.244;2023-06-04T02:38:30;13.40;99.90
22813;DHT22;11573;51.334;3.244;2023-06-04T02:40:57;13.40;99.90
22813;DHT22;11573;51.334;3.244;2023-06-04T02:43:24;13.40;99.90
22813;DHT22;11573;51.334;3.244;2023-06-04T02:45:51;13.40;99.90
22813;DHT22;11573;51.334;3.244;2023-06-04T02:48:18;13.30;99.90
22813;DHT22;11573;51.334;3.244;2023-06-04T02:50:45;13.30;99.90
22813;DHT22;11573;51.334;3.244;2023-06-04T02:53:12;13.30;99.90
22813;DHT22;11573;51.334;3.244;2023-06-04T02:55:39;13.30;99.90
22813;DHT22;11573;51.334;3.244;2023-06-04T02:58:08;13.40;99.90
22813;DHT22;11573;51.334;3.244;2023-06-04T03:00:35;13.30;99.90
22813;DHT22;11573;51.334;3.244;2023-06-04T03:03:02;13.30;99.90
22813;DHT22;11573;51.334;3.244;2023-06-04T03:05:29;13.30;99.90
22813;DHT22;11573;51.334;3.244;2023-06-04T03:08:01;13.30;99.90
22813;DHT22;11573;51.334;3.244;2023-06-04T03:10:29;13.30;99.90
22813;DHT22;11573;51.334;3.244;2023-06-04T03:12:57;13.30;99.90
22813;DHT22;11573;51.334;3.244;2023-06-04T03:15:25;13.30;99.90
22813;DHT22;11573;51.334;3.244;2023-06-04T03:17:52;13.30;99.90
22813;DHT22;11573;51.334;3.244;2023-06-04T03:20:19;13.30;99.90
22813;DHT22;11573;51.334;3.244;2023-06-04T03:22:46;13.20;99.90
22813;DHT22;11573;51.334;3.244;2023-06-04T03:25:13;13.20;99.90
22813;DHT22;11573;51.334;3.244;2023-06-04T03:27:40;13.20;99.90
22813;DHT22;11573;51.334;3.244;2023-06-04T03:30:07;13.20;99.90
22813;DHT22;11573;51.334;3.244;2023-06-04T03:32:43;13.20;99.90
22813;DHT22;11573;51.334;3.244;2023-06-04T03:35:13;13.20;99.90
22813;DHT22;11573;51.334;3.244;2023-06-04T03:37:40;13.20;99.90
22813;DHT22;11573;51.334;3.244;2023-06-04T03:40:08;13.20;99.90
22813;DHT22;11573;51.334;3.244;2023-06-04T03:42:38;13.20;99.90
22813;DHT22;11573;51.334;3.244;2023-06-04T03:45:06;13.20;99.90
22813;DHT22;11573;51.334;3.244;2023-06-04T03:47:35;13.20;99.90
22813;DHT22;11573;51.334;3.244;2023-06-04T03:50:02;13.20;99.90
22813;DHT22;11573;51.334;3.244;2023-06-04T03:52:30;13.20;99.90
22813;DHT22;11573;51.334;3.244;2023-06-04T03:54:59;13.20;99.90
22813;DHT22;11573;51.334;3.244;2023-06-04T03:57:28;13.30;99.90
22813;DHT22;11573;51.334;3.244;2023-06-04T03:59:56;13.30;99.90
22813;DHT22;11573;51.334;3.244;2023-06-04T04:02:23;13.30;99.90
22813;DHT22;11573;51.334;3.244;2023-06-04T04:04:50;13.40;99.90
22813;DHT22;11573;51.334;3.244;2023-06-04T04:07:17;13.40;99.90
22813;DHT22;11573;51.334;3.244;2023-06-04T04:09:45;13.50;99.90
22813;DHT22;11573;51.334;3.244;2023-06-04T04:12:12;13.50;99.90
22813;DHT22;11573;51.334;3.244;2023-06-04T04:14:39;13.60;99.90
22813;DHT22;11573;51.334;3.244;2023-06-04T04:17:07;13.80;99.90
22813;DHT22;11573;51.334;3.244;2023-06-04T04:19:35;14.20;99.90
22813;DHT22;11573;51.334;3.244;2023-06-04T04:22:03;14.80;99.90
22813;DHT22;11573;51.334;3.244;2023-06-04T04:24:30;15.50;99.90
22813;DHT22;11573;51.334;3.244;2023-06-04T04:27:01;16.20;99.90
22813;DHT22;11573;51.334;3.244;2023-06-04T04:29:32;16.60;99.90
22813;DHT22;11573;51.334;3.244;2023-06-04T04:32:02;17.00;99.90
22813;DHT22;11573;51.334;3.244;2023-06-04T04:34:51;17.40;99.90
22813;DHT22;11573;51.334;3.244;2023-06-04T04:37:21;17.80;99.90
22813;DHT22;11573;51.334;3.244;2023-06-04T04:39:50;17.90;99.90
22813;DHT22;11573;51.334;3.244;2023-06-04T04:42:21;18.00;99.90
22813;DHT22;11573;51.334;3.244;2023-06-04T04:44:49;18.10;99.90
22813;DHT22;11573;51.334;3.244;2023-06-04T04:47:19;17.90;99.90
22813;DHT22;11573;51.334;3.244;2023-06-04T04:49:46;18.00;99.90
22813;DHT22;11573;51.334;3.244;2023-06-04T04:52:16;18.30;99.90
22813;DHT22;11573;51.334;3.244;2023-06-04T04:54:44;18.50;99.90
22813;DHT22;11573;51.334;3.244;2023-06-04T04:57:11;18.50;99.90
22813;DHT22;11573;51.334;3.244;2023-06-04T04:59:43;17.70;99.90
22813;DHT22;11573;51.334;3.244;2023-06-04T05:02:10;17.50;99.90
22813;DHT22;11573;51.334;3.244;2023-06-04T05:04:38;17.40;99.90
22813;DHT22;11573;51.334;3.244;2023-06-04T05:07:05;17.80;99.90
22813;DHT22;11573;51.334;3.244;2023-06-04T05:09:32;18.90;99.90
22813;DHT22;11573;51.334;3.244;2023-06-04T05:11:59;19.70;99.90
22813;DHT22;11573;51.334;3.244;2023-06-04T05:14:28;20.00;99.90
22813;DHT22;11573;51.334;3.244;2023-06-04T05:16:55;20.50;99.90
22813;DHT22;11573;51.334;3.244;2023-06-04T05:19:25;20.80;99.90
22813;DHT22;11573;51.334;3.244;2023-06-04T05:21:52;21.20;99.90
22813;DHT22;11573;51.334;3.244;2023-06-04T05:24:19;20.70;99.90
22813;DHT22;11573;51.334;3.244;2023-06-04T05:26:47;20.50;99.90
22813;DHT22;11573;51.334;3.244;2023-06-04T05:29:18;20.10;99.90
22813;DHT22;11573;51.334;3.244;2023-06-04T05:31:47;19.90;99.90
22813;DHT22;11573;51.334;3.244;2023-06-04T05:34:17;19.70;99.90
22813;DHT22;11573;51.334;3.244;2023-06-04T05:36:46;19.60;99.90
22813;DHT22;11573;51.334;3.244;2023-06-04T05:39:14;19.40;99.90
22813;DHT22;11573;51.334;3.244;2023-06-04T05:41:50;20.20;99.90
22813;DHT22;11573;51.334;3.244;2023-06-04T05:44:18;20.60;99.90
22813;DHT22;11573;51.334;3.244;2023-06-04T05:46:46;20.20;99.90
22813;DHT22;11573;51.334;3.244;2023-06-04T05:49:14;20.10;99.90
22813;DHT22;11573;51.334;3.244;2023-06-04T05:51:41;20.10;99.90
22813;DHT22;11573;51.334;3.244;2023-06-04T05:54:08;19.90;99.90
22813;DHT22;11573;51.334;3.244;2023-06-04T05:56:39;19.80;99.90
22813;DHT22;11573;51.334;3.244;2023-06-04T05:59:06;18.80;99.90
22813;DHT22;11573;51.334;3.244;2023-06-04T06:01:33;18.10;99.90
22813;DHT22;11573;51.334;3.244;2023-06-04T06:04:01;17.30;99.90
22813;DHT22;11573;51.334;3.244;2023-06-04T06:06:29;16.60;99.90
22813;DHT22;11573;51.334;3.244;2023-06-04T06:08:56;16.40;99.90
22813;DHT22;11573;51.334;3.244;2023-06-04T06:11:25;16.20;99.90
22813;DHT22;11573;51.334;3.244;2023-06-04T06:13:54;16.20;99.90
22813;DHT22;11573;51.334;3.244;2023-06-04T06:16:21;16.00;99.90
22813;DHT22;11573;51.334;3.244;2023-06-04T06:18:49;15.90;99.90
22813;DHT22;11573;51.334;3.244;2023-06-04T06:21:16;16.20;99.90
22813;DHT22;11573;51.334;3.244;2023-06-04T06:23:43;16.10;99.90
22813;DHT22;11573;51.334;3.244;2023-06-04T06:26:10;16.00;99.90
22813;DHT22;11573;51.334;3.244;2023-06-04T06:28:44;16.10;99.90
22813;DHT22;11573;51.334;3.244;2023-06-04T06:31:13;16.20;99.90
22813;DHT22;11573;51.334;3.244;2023-06-04T06:33:39;16.00;99.90
22813;DHT22;11573;51.334;3.244;2023-06-04T06:36:10;15.90;99.90
22813;DHT22;11573;51.334;3.244;2023-06-04T06:38:39;16.00;99.90
22813;DHT22;11573;51.334;3.244;2023-06-04T06:41:06;16.20;99.90
22813;DHT22;11573;51.334;3.244;2023-06-04T06:43:33;16.10;99.90
22813;DHT22;11573;51.334;3.244;2023-06-04T06:46:00;15.90;99.90
22813;DHT22;11573;51.334;3.244;2023-06-04T06:48:27;15.80;99.90
22813;DHT22;11573;51.334;3.244;2023-06-04T06:50:54;15.90;99.90
22813;DHT22;11573;51.334;3.244;2023-06-04T06:53:21;16.10;99.90
22813;DHT22;11573;51.334;3.244;2023-06-04T06:55:48;16.30;99.90
22813;DHT22;11573;51.334;3.244;2023-06-04T06:58:16;16.50;99.90
22813;DHT22;11573;51.334;3.244;2023-06-04T07:00:42;16.50;99.90
22813;DHT22;11573;51.334;3.244;2023-06-04T07:03:09;16.60;99.90
22813;DHT22;11573;51.334;3.244;2023-06-04T07:05:36;16.60;99.90
22813;DHT22;11573;51.334;3.244;2023-06-04T07:08:03;16.80;99.90
22813;DHT22;11573;51.334;3.244;2023-06-04T07:10:30;16.70;99.90
22813;DHT22;11573;51.334;3.244;2023-06-04T07:12:57;16.80;99.90
22813;DHT22;11573;51.334;3.244;2023-06-04T07:15:24;16.70;99.90
22813;DHT22;11573;51.334;3.244;2023-06-04T07:17:51;16.70;99.90
22813;DHT22;11573;51.334;3.244;2023-06-04T07:20:18;16.70;99.90
22813;DHT22;11573;51.334;3.244;2023-06-04T07:22:45;16.70;99.90
22813;DHT22;11573;51.334;3.244;2023-06-04T07:25:12;16.60;99.90
22813;DHT22;11573;51.334;3.244;2023-06-04T07:27:39;16.50;99.90
22813;DHT22;11573;51.334;3.244;2023-06-04T07:30:07;16.60;99.90
22813;DHT22;11573;51.334;3.244;2023-06-04T07:32:34;16.80;99.90
22813;DHT22;11573;51.334;3.244;2023-06-04T07:35:02;16.80;99.90
22813;DHT22;11573;51.334;3.244;2023-06-04T07:37:29;16.90;99.90
22813;DHT22;11573;51.334;3.244;2023-06-04T07:39:57;17.00;99.90
22813;DHT22;11573;51.334;3.244;2023-06-04T07:42:24;16.90;99.90
22813;DHT22;11573;51.334;3.244;2023-06-04T07:44:51;16.90;99.90
22813;DHT22;11573;51.334;3.244;2023-06-04T07:47:18;16.90;99.90
22813;DHT22;11573;51.334;3.244;2023-06-04T07:49:45;17.00;99.90
22813;DHT22;11573;51.334;3.244;2023-06-04T07:52:28;17.00;99.90
22813;DHT22;11573;51.334;3.244;2023-06-04T07:54:55;17.20;99.90
22813;DHT22;11573;51.334;3.244;2023-06-04T07:57:22;17.20;99.90
22813;DHT22;11573;51.334;3.244;2023-06-04T07:59:49;17.30;99.90
22813;DHT22;11573;51.334;3.244;2023-06-04T08:02:16;17.40;99.90
22813;DHT22;11573;51.334;3.244;2023-06-04T08:04:44;17.50;99.90
22813;DHT22;11573;51.334;3.244;2023-06-04T08:07:12;17.40;99.90
22813;DHT22;11573;51.334;3.244;2023-06-04T08:09:39;17.50;99.90
22813;DHT22;11573;51.334;3.244;2023-06-04T08:12:06;17.50;99.90
22813;DHT22;11573;51.334;3.244;2023-06-04T08:14:36;17.70;99.90
22813;DHT22;11573;51.334;3.244;2023-06-04T08:17:03;17.90;99.90
22813;DHT22;11573;51.334;3.244;2023-06-04T08:19:31;17.90;99.90
22813;DHT22;11573;51.334;3.244;2023-06-04T08:21:57;17.90;99.90
22813;DHT22;11573;51.334;3.244;2023-06-04T08:24:24;17.80;99.90
22813;DHT22;11573;51.334;3.244;2023-06-04T08:26:51;17.80;99.90
22813;DHT22;11573;51.334;3.244;2023-06-04T08:29:19;18.00;99.90
22813;DHT22;11573;51.334;3.244;2023-06-04T08:31:46;17.90;99.90
22813;DHT22;11573;51.334;3.244;2023-06-04T08:34:13;17.90;99.90
22813;DHT22;11573;51.334;3.244;2023-06-04T08:36:40;18.00;99.90
22813;DHT22;11573;51.334;3.244;2023-06-04T08:39:08;17.70;99.90
22813;DHT22;11573;51.334;3.244;2023-06-04T08:41:43;17.60;99.90
22813;DHT22;11573;51.334;3.244;2023-06-04T08:44:11;17.70;99.90
22813;DHT22;11573;51.334;3.244;2023-06-04T08:46:39;17.80;99.90
22813;DHT22;11573;51.334;3.244;2023-06-04T08:49:09;17.90;99.90
22813;DHT22;11573;51.334;3.244;2023-06-04T08:51:38;17.90;99.90
22813;DHT22;11573;51.334;3.244;2023-06-04T08:54:06;17.90;99.90
22813;DHT22;11573;51.334;3.244;2023-06-04T08:56:35;18.10;99.90
22813;DHT22;11573;51.334;3.244;2023-06-04T08:59:05;18.30;99.90
22813;DHT22;11573;51.334;3.244;2023-06-04T09:01:36;18.40;99.90
22813;DHT22;11573;51.334;3.244;2023-06-04T09:04:05;18.30;99.90
22813;DHT22;11573;51.334;3.244;2023-06-04T09:06:38;18.20;99.90
22813;DHT22;11573;51.334;3.244;2023-06-04T09:09:08;18.20;99.90
22813;DHT22;11573;51.334;3.244;2023-06-04T09:11:41;18.30;99.90
22813;DHT22;11573;51.334;3.244;2023-06-04T09:14:11;18.30;99.90
22813;DHT22;11573;51.334;3.244;2023-06-04T09:19:15;18.00;99.90
22813;DHT22;11573;51.334;3.244;2023-06-04T09:24:13;17.70;99.90
22813;DHT22;11573;51.334;3.244;2023-06-04T09:26:40;17.60;99.90
22813;DHT22;11573;51.334;3.244;2023-06-04T09:29:07;17.60;99.90
22813;DHT22;11573;51.334;3.244;2023-06-04T09:31:34;17.80;99.90
22813;DHT22;11573;51.334;3.244;2023-06-04T09:34:04;17.90;99.90
22813;DHT22;11573;51.334;3.244;2023-06-04T09:36:33;18.10;99.90
22813;DHT22;11573;51.334;3.244;2023-06-04T09:39:01;18.30;99.90
22813;DHT22;11573;51.334;3.244;2023-06-04T09:41:29;18.20;99.90
22813;DHT22;11573;51.334;3.244;2023-06-04T09:44:03;18.20;99.90
22813;DHT22;11573;51.334;3.244;2023-06-04T09:46:30;18.00;99.90
22813;DHT22;11573;51.334;3.244;2023-06-04T09:49:05;17.90;99.90
22813;DHT22;11573;51.334;3.244;2023-06-04T09:51:32;18.00;99.90
22813;DHT22;11573;51.334;3.244;2023-06-04T09:54:01;18.10;99.90
22813;DHT22;11573;51.334;3.244;2023-06-04T09:56:28;18.30;99.90
22813;DHT22;11573;51.334;3.244;2023-06-04T09:58:58;18.30;99.90
22813;DHT22;11573;51.334;3.244;2023-06-04T10:01:28;18.30;99.90
22813;DHT22;11573;51.334;3.244;2023-06-04T10:04:01;18.40;99.90
22813;DHT22;11573;51.334;3.244;2023-06-04T10:06:33;18.30;99.90
22813;DHT22;11573;51.334;3.244;2023-06-04T10:09:05;18.20;99.90
22813;DHT22;11573;51.334;3.244;2023-06-04T10:11:41;17.80;99.90
22813;DHT22;11573;51.334;3.244;2023-06-04T10:14:25;17.80;99.90
22813;DHT22;11573;51.334;3.244;2023-06-04T10:16:57;18.00;99.90
22813;DHT22;11573;51.334;3.244;2023-06-04T10:19:24;18.20;99.90
22813;DHT22;11573;51.334;3.244;2023-06-04T10:21:52;17.90;99.90
22813;DHT22;11573;51.334;3.244;2023-06-04T10:24:19;18.00;99.90
22813;DHT22;11573;51.334;3.244;2023-06-04T10:26:49;18.10;99.90
22813;DHT22;11573;51.334;3.244;2023-06-04T10:29:18;18.00;99.90
22813;DHT22;11573;51.334;3.244;2023-06-04T10:31:45;18.00;99.90
22813;DHT22;11573;51.334;3.244;2023-06-04T10:34:12;18.00;99.90
22813;DHT22;11573;51.334;3.244;2023-06-04T10:36:45;17.80;99.90
22813;DHT22;11573;51.334;3.244;2023-06-04T10:39:12;17.70;99.90
22813;DHT22;11573;51.334;3.244;2023-06-04T10:41:39;17.80;99.90
22813;DHT22;11573;51.334;3.244;2023-06-04T10:44:07;17.90;99.90
22813;DHT22;11573;51.334;3.244;2023-06-04T10:46:38;17.90;99.90
22813;DHT22;11573;51.334;3.244;2023-06-04T10:49:10;18.00;99.90
22813;DHT22;11573;51.334;3.244;2023-06-04T10:51:41;18.10;99.90
22813;DHT22;11573;51.334;3.244;2023-06-04T10:54:10;18.10;99.90
22813;DHT22;11573;51.334;3.244;2023-06-04T10:56:37;18.10;99.90
22813;DHT22;11573;51.334;3.244;2023-06-04T10:59:15;18.00;99.90
22813;DHT22;11573;51.334;3.244;2023-06-04T11:01:42;18.10;99.90
22813;DHT22;11573;51.334;3.244;2023-06-04T11:04:23;18.10;99.90
22813;DHT22;11573;51.334;3.244;2023-06-04T11:07:07;18.10;99.90
22813;DHT22;11573;51.334;3.244;2023-06-04T11:09:47;18.10;99.90
22813;DHT22;11573;51.334;3.244;2023-06-04T11:12:14;18.20;99.90
22813;DHT22;11573;51.334;3.244;2023-06-04T11:14:52;18.10;99.90
22813;DHT22;11573;51.334;3.244;2023-06-04T11:17:19;18.00;99.90
22813;DHT22;11573;51.334;3.244;2023-06-04T11:19:47;18.10;99.90
22813;DHT22;11573;51.334;3.244;2023-06-04T11:22:14;18.20;99.90
22813;DHT22;11573;51.334;3.244;2023-06-04T11:24:41;18.10;99.90
22813;DHT22;11573;51.334;3.244;2023-06-04T11:27:08;18.10;99.90
22813;DHT22;11573;51.334;3.244;2023-06-04T11:29:49;18.00;99.90
22813;DHT22;11573;51.334;3.244;2023-06-04T11:32:24;18.00;99.90
22813;DHT22;11573;51.334;3.244;2023-06-04T11:35:01;17.90;99.90
22813;DHT22;11573;51.334;3.244;2023-06-04T11:37:28;18.00;99.90
22813;DHT22;11573;51.334;3.244;2023-06-04T11:39:57;18.10;99.90
22813;DHT22;11573;51.334;3.244;2023-06-04T11:42:24;18.20;99.90
22813;DHT22;11573;51.334;3.244;2023-06-04T11:44:56;18.10;99.90
22813;DHT22;11573;51.334;3.244;2023-06-04T11:47:24;18.30;99.90
22813;DHT22;11573;51.334;3.244;2023-06-04T11:49:58;18.10;99.90
22813;DHT22;11573;51.334;3.244;2023-06-04T11:52:27;18.00;99.90
22813;DHT22;11573;51.334;3.244;2023-06-04T11:54:54;18.10;99.90
22813;DHT22;11573;51.334;3.244;2023-06-04T11:57:21;18.20;99.90
22813;DHT22;11573;51.334;3.244;2023-06-04T11:59:48;18.10;99.90
22813;DHT22;11573;51.334;3.244;2023-06-04T12:02:16;17.90;99.90
22813;DHT22;11573;51.334;3.244;2023-06-04T12:04:43;17.90;99.90
22813;DHT22;11573;51.334;3.244;2023-06-04T12:07:10;17.90;99.90
22813;DHT22;11573;51.334;3.244;2023-06-04T12:09:38;17.90;99.90
22813;DHT22;11573;51.334;3.244;2023-06-04T12:12:07;18.10;99.90
22813;DHT22;11573;51.334;3.244;2023-06-04T12:14:34;18.10;99.90
22813;DHT22;11573;51.334;3.244;2023-06-04T12:17:09;18.00;99.90
22813;DHT22;11573;51.334;3.244;2023-06-04T12:19:50;18.00;99.90
22813;DHT22;11573;51.334;3.244;2023-06-04T12:22:18;18.20;99.90
22813;DHT22;11573;51.334;3.244;2023-06-04T12:24:54;18.30;99.90
22813;DHT22;11573;51.334;3.244;2023-06-04T12:27:22;18.10;99.90
22813;DHT22;11573;51.334;3.244;2023-06-04T12:29:59;17.80;99.90
22813;DHT22;11573;51.334;3.244;2023-06-04T12:32:27;17.80;99.90
22813;DHT22;11573;51.334;3.244;2023-06-04T12:34:55;17.80;99.90
22813;DHT22;11573;51.334;3.244;2023-06-04T12:37:23;17.90;99.90
22813;DHT22;11573;51.334;3.244;2023-06-04T12:39:56;18.10;99.90
22813;DHT22;11573;51.334;3.244;2023-06-04T12:42:23;18.10;99.90
22813;DHT22;11573;51.334;3.244;2023-06-04T12:44:50;18.30;99.90
22813;DHT22;11573;51.334;3.244;2023-06-04T12:47:17;18.20;99.90
22813;DHT22;11573;51.334;3.244;2023-06-04T12:49:45;18.30;99.90
22813;DHT22;11573;51.334;3.244;2023-06-04T12:52:12;18.30;99.90
22813;DHT22;11573;51.334;3.244;2023-06-04T12:54:42;18.20;99.90
22813;DHT22;11573;51.334;3.244;2023-06-04T12:57:09;18.20;99.90
22813;DHT22;11573;51.334;3.244;2023-06-04T12:59:36;18.30;99.90
22813;DHT22;11573;51.334;3.244;2023-06-04T13:02:03;18.20;99.90
22813;DHT22;11573;51.334;3.244;2023-06-04T13:04:30;18.10;99.90
22813;DHT22;11573;51.334;3.244;2023-06-04T13:06:57;18.00;99.90
22813;DHT22;11573;51.334;3.244;2023-06-04T13:09:26;17.90;99.90
22813;DHT22;11573;51.334;3.244;2023-06-04T13:11:55;17.80;99.90
22813;DHT22;11573;51.334;3.244;2023-06-04T13:14:22;18.10;99.90
22813;DHT22;11573;51.334;3.244;2023-06-04T13:16:49;18.20;99.90
22813;DHT22;11573;51.334;3.244;2023-06-04T13:19:18;18.30;99.90
22813;DHT22;11573;51.334;3.244;2023-06-04T13:21:49;18.30;99.90
22813;DHT22;11573;51.334;3.244;2023-06-04T13:24:16;18.40;99.90
22813;DHT22;11573;51.334;3.244;2023-06-04T13:26:43;18.30;99.90
22813;DHT22;11573;51.334;3.244;2023-06-04T13:29:10;18.40;99.90
22813;DHT22;11573;51.334;3.244;2023-06-04T13:31:37;18.30;99.90
22813;DHT22;11573;51.334;3.244;2023-06-04T13:34:06;18.30;99.90
22813;DHT22;11573;51.334;3.244;2023-06-04T13:36:53;18.20;99.90
22813;DHT22;11573;51.334;3.244;2023-06-04T13:39:20;18.00;99.90
22813;DHT22;11573;51.334;3.244;2023-06-04T13:41:48;18.00;99.90
22813;DHT22;11573;51.334;3.244;2023-06-04T13:44:14;18.00;99.90
22813;DHT22;11573;51.334;3.244;2023-06-04T13:46:42;18.10;99.90
22813;DHT22;11573;51.334;3.244;2023-06-04T13:49:09;18.10;99.90
22813;DHT22;11573;51.334;3.244;2023-06-04T13:51:36;17.90;99.90
22813;DHT22;11573;51.334;3.244;2023-06-04T13:54:03;18.10;99.90
22813;DHT22;11573;51.334;3.244;2023-06-04T13:56:30;18.00;99.90
22813;DHT22;11573;51.334;3.244;2023-06-04T13:58:57;17.80;99.90
22813;DHT22;11573;51.334;3.244;2023-06-04T14:01:24;17.80;99.90
22813;DHT22;11573;51.334;3.244;2023-06-04T14:03:51;18.00;99.90
22813;DHT22;11573;51.334;3.244;2023-06-04T14:06:19;18.20;99.90
22813;DHT22;11573;51.334;3.244;2023-06-04T14:08:45;18.30;99.90
22813;DHT22;11573;51.334;3.244;2023-06-04T14:11:12;18.20;99.90
22813;DHT22;11573;51.334;3.244;2023-06-04T14:13:39;18.30;99.90
22813;DHT22;11573;51.334;3.244;2023-06-04T14:16:08;18.10;99.90
22813;DHT22;11573;51.334;3.244;2023-06-04T14:18:35;17.90;99.90
22813;DHT22;11573;51.334;3.244;2023-06-04T14:21:01;17.90;99.90
22813;DHT22;11573;51.334;3.244;2023-06-04T14:23:28;18.10;99.90
22813;DHT22;11573;51.334;3.244;2023-06-04T14:25:56;17.80;99.90
22813;DHT22;11573;51.334;3.244;2023-06-04T14:28:22;17.70;99.90
22813;DHT22;11573;51.334;3.244;2023-06-04T14:30:49;17.50;99.90
22813;DHT22;11573;51.334;3.244;2023-06-04T14:33:17;17.60;99.90
22813;DHT22;11573;51.334;3.244;2023-06-04T14:35:44;17.50;99.90
22813;DHT22;11573;51.334;3.244;2023-06-04T14:38:14;17.50;99.90
22813;DHT22;11573;51.334;3.244;2023-06-04T14:40:42;17.40;99.90
22813;DHT22;11573;51.334;3.244;2023-06-04T14:43:11;17.50;99.90
22813;DHT22;11573;51.334;3.244;2023-06-04T14:45:39;17.40;99.90
22813;DHT22;11573;51.334;3.244;2023-06-04T14:48:07;17.60;99.90
22813;DHT22;11573;51.334;3.244;2023-06-04T14:50:42;17.80;99.90
22813;DHT22;11573;51.334;3.244;2023-06-04T14:53:10;17.60;99.90
22813;DHT22;11573;51.334;3.244;2023-06-04T14:55:38;17.40;99.90
22813;DHT22;11573;51.334;3.244;2023-06-04T14:58:05;17.40;99.90
22813;DHT22;11573;51.334;3.244;2023-06-04T15:00:32;17.30;99.90
22813;DHT22;11573;51.334;3.244;2023-06-04T15:02:59;17.50;99.90
22813;DHT22;11573;51.334;3.244;2023-06-04T15:05:30;17.60;99.90
22813;DHT22;11573;51.334;3.244;2023-06-04T15:07:57;17.50;99.90
22813;DHT22;11573;51.334;3.244;2023-06-04T15:10:25;17.50;99.90
22813;DHT22;11573;51.334;3.244;2023-06-04T15:12:53;17.70;99.90
22813;DHT22;11573;51.334;3.244;2023-06-04T15:15:20;17.90;99.90
22813;DHT22;11573;51.334;3.244;2023-06-04T15:17:48;17.70;99.90
22813;DHT22;11573;51.334;3.244;2023-06-04T15:20:15;17.70;99.90
22813;DHT22;11573;51.334;3.244;2023-06-04T15:22:42;17.50;99.90
22813;DHT22;11573;51.334;3.244;2023-06-04T15:25:10;17.60;99.90
22813;DHT22;11573;51.334;3.244;2023-06-04T15:27:37;17.60;99.90
22813;DHT22;11573;51.334;3.244;2023-06-04T15:30:06;17.60;99.90
22813;DHT22;11573;51.334;3.244;2023-06-04T15:32:33;17.50;99.90
22813;DHT22;11573;51.334;3.244;2023-06-04T15:35:01;17.50;99.90
22813;DHT22;11573;51.334;3.244;2023-06-04T15:37:29;17.60;99.90
22813;DHT22;11573;51.334;3.244;2023-06-04T15:39:56;17.70;99.90
22813;DHT22;11573;51.334;3.244;2023-06-04T15:42:24;17.80;99.90
22813;DHT22;11573;51.334;3.244;2023-06-04T15:44:51;17.60;99.90
22813;DHT22;11573;51.334;3.244;2023-06-04T15:47:18;17.80;99.90